createdAt,value
2023-03-26T00:01:16.509Z,37.62
2023-03-26T00:03:44.893Z,37.50
2023-03-26T00:06:12.704Z,37.79
2023-03-26T00:08:39.748Z,37.70
2023-03-26T00:11:06.629Z,37.49
2023-03-26T00:13:33.187Z,37.41
2023-03-26T00:15:59.663Z,37.65
2023-03-26T00:18:30.528Z,37.66
2023-03-26T00:20:57.954Z,37.61
2023-03-26T00:23:24.372Z,37.39
2023-03-26T00:25:50.903Z,37.60
2023-03-26T00:28:21.432Z,37.48
2023-03-26T00:30:48.170Z,37.37
2023-03-26T00:33:17.314Z,37.50
2023-03-26T00:35:46.744Z,37.56
2023-03-26T00:38:14.201Z,37.47
2023-03-26T00:40:44.056Z,37.47
2023-03-26T00:43:19.113Z,37.51
2023-03-26T00:45:48.748Z,37.43
2023-03-26T00:48:15.333Z,37.26
2023-03-26T00:50:41.647Z,37.29
2023-03-26T00:53:08.809Z,37.43
2023-03-26T00:55:35.472Z,37.48
2023-03-26T00:58:01.802Z,37.48
2023-03-26T01:00:28.968Z,37.36
2023-03-26T01:02:55.902Z,37.37
2023-03-26T01:05:34.392Z,37.22
2023-03-26T01:08:30.687Z,37.29
2023-03-26T01:11:03.013Z,37.26
2023-03-26T01:13:31.197Z,37.39
2023-03-26T01:15:57.928Z,37.29
2023-03-26T01:18:27.196Z,37.21
2023-03-26T01:20:58.444Z,37.37
2023-03-26T01:23:26.238Z,37.16
2023-03-26T01:25:55.023Z,37.21
2023-03-26T01:28:21.652Z,37.31
2023-03-26T01:30:51.439Z,37.35
2023-03-26T01:33:23.426Z,37.11
2023-03-26T01:35:53.450Z,37.19
2023-03-26T01:38:24.581Z,37.28
2023-03-26T01:41:10.563Z,37.19
2023-03-26T01:43:43.204Z,37.09
2023-03-26T01:46:09.721Z,37.22
2023-03-26T01:48:36.936Z,37.18
2023-03-26T01:51:03.904Z,36.97
2023-03-26T01:53:30.208Z,37.12
2023-03-26T01:56:01.933Z,37.08
2023-03-26T01:58:31.498Z,37.07
2023-03-26T02:01:03.997Z,37.03
2023-03-26T02:03:31.578Z,36.96
2023-03-26T02:06:01.062Z,36.93
2023-03-26T02:08:36.994Z,36.98
2023-03-26T02:11:11.484Z,37.08
2023-03-26T02:13:38.828Z,37.05
2023-03-26T02:16:06.120Z,36.92
2023-03-26T02:18:41.492Z,36.91
2023-03-26T02:21:15.352Z,37.14
2023-03-26T02:23:42.479Z,37.05
2023-03-26T02:26:09.259Z,37.12
2023-03-26T02:28:35.644Z,36.84
2023-03-26T02:31:03.379Z,37.02
2023-03-26T02:33:29.779Z,37.01
2023-03-26T02:35:59.418Z,37.08
2023-03-26T02:38:26.648Z,36.94
2023-03-26T02:40:54.314Z,36.70
2023-03-26T02:43:20.828Z,36.87
2023-03-26T02:45:47.191Z,36.93
2023-03-26T02:48:15.025Z,36.86
2023-03-26T02:50:41.455Z,36.63
2023-03-26T02:53:07.760Z,36.78
2023-03-26T02:55:34.064Z,36.79
2023-03-26T02:58:02.133Z,36.80
2023-03-26T03:00:28.952Z,36.64
2023-03-26T03:02:57.853Z,36.93
2023-03-26T03:05:26.945Z,36.75
2023-03-26T03:07:58.161Z,36.62
2023-03-26T03:10:25.192Z,36.71
2023-03-26T03:12:51.549Z,36.66
2023-03-26T03:15:17.855Z,36.72
2023-03-26T03:17:44.202Z,36.79
2023-03-26T03:20:11.293Z,36.72
2023-03-26T03:22:37.639Z,36.84
2023-03-26T03:25:04.599Z,36.68
2023-03-26T03:27:30.910Z,36.61
2023-03-26T03:29:58.936Z,36.80
2023-03-26T03:32:25.301Z,36.74
2023-03-26T03:34:51.759Z,36.64
2023-03-26T03:37:18.756Z,36.58
2023-03-26T03:39:45.156Z,36.53
2023-03-26T03:42:11.472Z,36.69
2023-03-26T03:44:37.796Z,36.71
2023-03-26T03:47:04.102Z,36.65
2023-03-26T03:49:30.526Z,36.52
2023-03-26T03:51:57.133Z,36.62
2023-03-26T03:54:23.488Z,36.58
2023-03-26T03:56:49.835Z,36.59
2023-03-26T03:59:16.158Z,36.54
2023-03-26T04:01:43.189Z,36.66
2023-03-26T04:04:09.913Z,36.62
2023-03-26T04:06:36.262Z,36.69
2023-03-26T04:09:02.884Z,36.68
2023-03-26T04:11:29.203Z,36.79
2023-03-26T04:13:55.890Z,36.58
2023-03-26T04:16:22.269Z,36.64
2023-03-26T04:18:48.718Z,36.53
2023-03-26T04:21:15.919Z,36.75
2023-03-26T04:23:42.529Z,36.62
2023-03-26T04:26:10.414Z,36.72
2023-03-26T04:28:42.275Z,36.57
2023-03-26T04:31:09.115Z,36.60
2023-03-26T04:33:35.466Z,36.52
2023-03-26T04:36:02.913Z,36.57
2023-03-26T04:38:29.902Z,36.60
2023-03-26T04:41:00.516Z,36.70
2023-03-26T04:43:28.351Z,36.54
2023-03-26T04:45:54.783Z,36.69
2023-03-26T04:48:21.870Z,36.52
2023-03-26T04:50:48.181Z,36.60
2023-03-26T04:53:15.356Z,36.56
2023-03-26T04:56:01.875Z,36.44
2023-03-26T04:58:30.402Z,36.54
2023-03-26T05:00:57.268Z,36.50
2023-03-26T05:03:23.684Z,36.50
2023-03-26T05:05:50.442Z,36.55
2023-03-26T05:08:17.007Z,36.42
2023-03-26T05:10:43.318Z,36.58
2023-03-26T05:13:10.284Z,36.62
2023-03-26T05:15:36.639Z,36.42
2023-03-26T05:18:02.992Z,36.23
2023-03-26T05:20:30.159Z,36.45
2023-03-26T05:22:56.837Z,36.30
2023-03-26T05:25:23.146Z,36.41
2023-03-26T05:27:49.480Z,36.17
2023-03-26T05:30:16.676Z,36.26
2023-03-26T05:32:43.093Z,36.06
2023-03-26T05:35:09.816Z,36.30
2023-03-26T05:37:38.741Z,36.46
2023-03-26T05:40:11.348Z,36.24
2023-03-26T05:42:38.430Z,36.41
2023-03-26T05:45:05.839Z,36.13
2023-03-26T05:47:32.632Z,36.32
2023-03-26T05:49:59.241Z,36.23
2023-03-26T05:52:25.564Z,36.35
2023-03-26T05:54:51.871Z,36.51
2023-03-26T05:57:18.692Z,36.75
2023-03-26T05:59:45.023Z,36.32
2023-03-26T06:02:11.468Z,36.58
2023-03-26T06:04:41.160Z,36.67
2023-03-26T06:07:10.953Z,36.43
2023-03-26T06:09:41.397Z,36.56
2023-03-26T06:12:07.975Z,36.57
2023-03-26T06:14:34.307Z,36.33
2023-03-26T06:17:00.880Z,36.48
2023-03-26T06:19:27.191Z,36.34
2023-03-26T06:21:53.496Z,36.15
2023-03-26T06:24:20.324Z,36.12
2023-03-26T06:26:47.276Z,36.42
2023-03-26T06:29:14.167Z,36.22
2023-03-26T06:31:40.797Z,36.10
2023-03-26T06:34:07.267Z,36.17
2023-03-26T06:36:33.615Z,36.11
2023-03-26T06:38:59.940Z,36.29
2023-03-26T06:41:26.291Z,36.33
2023-03-26T06:43:52.862Z,36.17
2023-03-26T06:46:21.134Z,36.24
2023-03-26T06:48:47.519Z,36.08
2023-03-26T06:51:13.832Z,36.29
2023-03-26T06:53:40.227Z,36.25
2023-03-26T06:56:09.032Z,36.08
2023-03-26T06:58:35.614Z,36.18
2023-03-26T07:01:01.999Z,36.26
2023-03-26T07:03:28.341Z,36.19
2023-03-26T07:05:54.676Z,36.01
2023-03-26T07:08:21.072Z,36.13
2023-03-26T07:10:47.423Z,36.28
2023-03-26T07:13:13.727Z,36.40
2023-03-26T07:15:40.068Z,36.33
2023-03-26T07:18:06.596Z,36.40
2023-03-26T07:20:32.974Z,36.31
2023-03-26T07:22:59.431Z,36.11
2023-03-26T07:25:25.948Z,36.11
2023-03-26T07:27:52.331Z,36.01
2023-03-26T07:30:24.735Z,36.04
2023-03-26T07:33:07.946Z,35.99
2023-03-26T07:35:34.250Z,36.00
2023-03-26T07:38:03.343Z,36.11
2023-03-26T07:40:44.129Z,36.26
2023-03-26T07:43:39.890Z,36.35
2023-03-26T07:46:07.898Z,36.91
2023-03-26T07:48:40.699Z,36.74
2023-03-26T07:51:07.221Z,37.05
2023-03-26T07:53:33.661Z,37.09
2023-03-26T07:55:59.943Z,37.17
2023-03-26T07:58:44.699Z,37.45
2023-03-26T08:01:37.982Z,37.38
2023-03-26T08:04:23.401Z,37.07
2023-03-26T08:06:59.581Z,37.38
2023-03-26T08:09:30.935Z,37.42
2023-03-26T08:11:59.151Z,37.41
2023-03-26T08:14:27.679Z,37.40
2023-03-26T08:16:54.647Z,37.19
2023-03-26T08:19:58.033Z,37.11
2023-03-26T08:22:27.749Z,37.28
2023-03-26T08:25:13.819Z,37.06
2023-03-26T08:27:40.936Z,37.29
2023-03-26T08:30:20.571Z,36.98
2023-03-26T08:32:49.655Z,37.06
2023-03-26T08:35:16.068Z,36.87
2023-03-26T08:37:45.233Z,36.87
2023-03-26T08:40:11.815Z,37.12
2023-03-26T08:43:01.387Z,36.86
2023-03-26T08:45:30.797Z,36.79
2023-03-26T08:48:03.143Z,36.70
2023-03-26T08:50:32.404Z,36.60
2023-03-26T08:53:17.874Z,36.68
2023-03-26T08:55:57.582Z,36.99
2023-03-26T08:58:42.917Z,36.85
2023-03-26T09:01:12.202Z,36.86
2023-03-26T09:03:50.948Z,36.85
2023-03-26T09:06:36.196Z,36.92
2023-03-26T09:09:04.490Z,37.05
2023-03-26T09:11:30.789Z,36.89
2023-03-26T09:14:03.231Z,36.76
2023-03-26T09:16:29.526Z,36.88
2023-03-26T09:19:14.276Z,36.79
2023-03-26T09:21:43.463Z,36.89
2023-03-26T09:24:18.206Z,36.84
2023-03-26T09:26:51.406Z,37.01
2023-03-26T09:29:17.666Z,36.75
2023-03-26T09:31:59.454Z,36.83
2023-03-26T09:34:26.251Z,36.81
2023-03-26T09:36:53.424Z,37.05
2023-03-26T09:39:23.627Z,37.02
2023-03-26T09:41:52.932Z,37.03
2023-03-26T09:44:37.995Z,36.96
2023-03-26T09:47:07.309Z,36.85
2023-03-26T09:49:54.362Z,36.95
2023-03-26T09:52:39.665Z,36.81
2023-03-26T09:55:22.783Z,36.85
2023-03-26T09:58:08.002Z,36.57
2023-03-26T10:00:53.055Z,36.73
2023-03-26T10:03:28.264Z,36.73
2023-03-26T10:06:13.379Z,36.71
2023-03-26T10:08:44.273Z,36.99
2023-03-26T10:11:18.666Z,37.11
2023-03-26T10:14:03.823Z,36.82
2023-03-26T10:16:31.105Z,37.01
2023-03-26T10:19:09.340Z,36.94
2023-03-26T10:21:55.357Z,36.91
2023-03-26T10:24:34.611Z,36.79
2023-03-26T10:27:19.725Z,36.88
2023-03-26T10:29:54.621Z,37.00
2023-03-26T10:32:44.386Z,37.05
2023-03-26T10:35:19.911Z,36.79
2023-03-26T10:38:01.560Z,37.08
2023-03-26T10:40:30.792Z,37.04
2023-03-26T10:43:16.240Z,36.84
2023-03-26T10:46:14.798Z,37.13
2023-03-26T10:48:48.800Z,36.97
2023-03-26T10:51:24.586Z,36.64
2023-03-26T10:54:06.668Z,36.83
2023-03-26T10:56:34.632Z,36.52
2023-03-26T10:59:12.293Z,36.66
2023-03-26T11:01:38.627Z,36.74
2023-03-26T11:04:25.372Z,36.31
2023-03-26T11:06:54.494Z,36.87
2023-03-26T11:09:23.812Z,36.96
2023-03-26T11:11:59.653Z,36.92
2023-03-26T11:14:35.016Z,37.09
2023-03-26T11:17:08.374Z,36.91
2023-03-26T11:19:46.712Z,36.65
2023-03-26T11:22:31.831Z,36.25
2023-03-26T11:25:13.557Z,36.22
2023-03-26T11:27:58.807Z,36.30
2023-03-26T11:30:34.477Z,36.31
2023-03-26T11:33:02.517Z,36.27
2023-03-26T11:35:41.026Z,36.24
2023-03-26T11:38:25.509Z,35.90
2023-03-26T11:40:55.797Z,36.10
2023-03-26T11:43:24.052Z,35.89
2023-03-26T11:45:50.930Z,35.92
2023-03-26T11:48:17.238Z,35.86
2023-03-26T11:51:07.308Z,36.11
2023-03-26T11:53:34.555Z,35.99
2023-03-26T11:56:09.184Z,35.97
2023-03-26T11:58:38.960Z,36.07
2023-03-26T12:01:07.020Z,35.91
2023-03-26T12:03:33.341Z,36.00
2023-03-26T12:05:59.743Z,35.81
2023-03-26T12:08:31.205Z,36.12
2023-03-26T12:11:10.902Z,36.07
2023-03-26T12:13:51.289Z,35.85
2023-03-26T12:16:18.775Z,35.83
2023-03-26T12:18:45.601Z,35.86
2023-03-26T12:21:15.759Z,35.71
2023-03-26T12:23:50.920Z,35.62
2023-03-26T12:26:17.891Z,35.85
2023-03-26T12:28:44.893Z,35.86
2023-03-26T12:31:11.711Z,35.77
2023-03-26T12:33:38.944Z,35.78
2023-03-26T12:36:19.483Z,35.71
2023-03-26T12:38:46.054Z,35.56
2023-03-26T12:44:44.403Z,35.92
2023-03-26T12:44:48.305Z,35.53
2023-03-26T12:47:58.313Z,35.89
2023-03-26T12:50:03.650Z,35.76
2023-03-26T12:52:48.072Z,35.82
2023-03-26T12:55:35.272Z,35.79
2023-03-26T12:58:13.664Z,35.74
2023-03-26T13:00:49.484Z,35.64
2023-03-26T13:03:15.871Z,35.60
2023-03-26T13:06:00.399Z,35.45
2023-03-26T13:08:40.976Z,35.42
2023-03-26T13:11:12.302Z,35.60
2023-03-26T13:13:38.633Z,35.41
2023-03-26T13:16:14.093Z,35.41
2023-03-26T13:18:43.568Z,35.68
2023-03-26T13:21:31.057Z,35.53
2023-03-26T13:24:03.615Z,35.49
2023-03-26T13:26:39.221Z,35.65
2023-03-26T13:29:06.017Z,35.67
2023-03-26T13:31:47.468Z,35.38
2023-03-26T13:34:36.202Z,35.31
2023-03-26T13:37:05.894Z,35.09
2023-03-26T13:39:46.053Z,35.12
2023-03-26T13:42:18.213Z,35.26
2023-03-26T13:44:51.195Z,35.20
2023-03-26T13:47:18.510Z,35.31
2023-03-26T13:49:46.775Z,35.16
2023-03-26T13:52:16.155Z,35.43
2023-03-26T13:54:45.768Z,35.10
2023-03-26T13:57:19.391Z,35.31
2023-03-26T13:59:51.004Z,35.38
2023-03-26T14:02:36.235Z,35.27
2023-03-26T14:05:07.953Z,35.29
2023-03-26T14:07:36.287Z,35.43
2023-03-26T14:10:10.591Z,35.59
2023-03-26T14:12:36.998Z,35.19
2023-03-26T14:15:06.877Z,35.47
2023-03-26T14:17:33.400Z,35.38
2023-03-26T14:20:12.126Z,35.27
2023-03-26T14:23:17.201Z,35.36
2023-03-26T14:25:49.668Z,35.49
2023-03-26T14:28:19.526Z,35.30
2023-03-26T14:30:54.370Z,35.29
2023-03-26T14:33:34.046Z,35.44
2023-03-26T14:36:04.653Z,35.58
2023-03-26T14:38:40.955Z,35.46
2023-03-26T14:41:07.200Z,35.42
2023-03-26T14:43:52.641Z,35.47
2023-03-26T14:46:39.242Z,35.27
2023-03-26T14:49:05.769Z,35.16
2023-03-26T14:51:42.203Z,35.21
2023-03-26T14:54:13.263Z,34.99
2023-03-26T14:56:46.720Z,35.11
2023-03-26T14:59:31.566Z,35.06
2023-03-26T15:02:16.602Z,35.18
2023-03-26T15:04:43.718Z,34.91
2023-03-26T15:07:19.671Z,34.82
2023-03-26T15:09:51.665Z,35.01
2023-03-26T15:12:24.492Z,34.71
2023-03-26T15:14:50.730Z,34.86
2023-03-26T15:17:31.746Z,34.91
2023-03-26T15:19:57.986Z,35.05
2023-03-26T15:22:27.028Z,35.04
2023-03-26T15:25:04.652Z,34.99
2023-03-26T15:27:30.907Z,35.08
2023-03-26T15:30:11.544Z,35.09
2023-03-26T15:32:57.117Z,35.26
2023-03-26T15:35:28.046Z,35.11
2023-03-26T15:38:03.759Z,35.04
2023-03-26T15:40:51.727Z,35.25
2023-03-26T15:43:21.120Z,35.09
2023-03-26T15:45:53.935Z,35.20
2023-03-26T15:48:39.461Z,35.28
2023-03-26T15:51:08.925Z,35.60
2023-03-26T15:53:36.617Z,35.62
2023-03-26T15:56:05.698Z,35.53
2023-03-26T15:58:46.524Z,35.51
2023-03-26T16:01:19.692Z,35.28
2023-03-26T16:03:51.188Z,35.05
2023-03-26T16:06:33.953Z,35.06
2023-03-26T16:09:07.935Z,35.18
2023-03-26T16:11:54.034Z,35.12
2023-03-26T16:14:35.950Z,35.18
2023-03-26T16:17:05.243Z,35.02
2023-03-26T16:19:36.124Z,35.00
2023-03-26T16:22:03.254Z,35.17
2023-03-26T16:24:36.603Z,34.86
2023-03-26T16:27:05.305Z,35.19
2023-03-26T16:29:31.637Z,35.11
2023-03-26T16:32:07.286Z,35.54
2023-03-26T16:34:52.926Z,35.58
2023-03-26T16:37:31.900Z,36.28
2023-03-26T16:40:16.524Z,36.39
2023-03-26T16:42:54.848Z,36.35
2023-03-26T16:45:24.265Z,36.68
2023-03-26T16:47:53.817Z,36.71
2023-03-26T16:50:20.159Z,36.72
2023-03-26T16:52:51.918Z,36.53
2023-03-26T16:55:19.852Z,36.43
2023-03-26T16:57:49.772Z,36.21
2023-03-26T17:00:19.115Z,36.59
2023-03-26T17:03:04.529Z,36.88
2023-03-26T17:05:37.520Z,36.74
2023-03-26T17:08:35.989Z,36.51
2023-03-26T17:11:15.351Z,36.49
2023-03-26T17:14:03.577Z,36.38
2023-03-26T17:16:33.385Z,35.75
2023-03-26T17:19:04.294Z,35.79
2023-03-26T17:21:46.921Z,36.02
2023-03-26T17:24:16.358Z,35.81
2023-03-26T17:26:48.212Z,36.02
2023-03-26T17:29:21.673Z,36.33
2023-03-26T17:32:01.192Z,36.13
2023-03-26T17:34:39.119Z,36.12
2023-03-26T17:37:28.595Z,36.58
2023-03-26T17:39:57.867Z,36.29
2023-03-26T17:42:32.682Z,36.33
2023-03-26T17:44:59.267Z,36.25
2023-03-26T17:47:25.639Z,36.27
2023-03-26T17:49:57.443Z,36.53
2023-03-26T17:52:33.764Z,35.99
2023-03-26T17:55:00.136Z,36.12
2023-03-26T17:57:28.083Z,36.35
2023-03-26T17:59:58.394Z,36.36
2023-03-26T18:02:32.065Z,36.00
2023-03-26T18:04:58.476Z,36.33
2023-03-26T18:07:40.128Z,36.30
2023-03-26T18:10:12.865Z,37.77
2023-03-26T18:12:39.292Z,38.14
2023-03-26T18:15:11.713Z,38.41
2023-03-26T18:17:45.845Z,37.96
2023-03-26T18:20:19.359Z,38.40
2023-03-26T18:22:46.110Z,37.47
2023-03-26T18:25:19.633Z,38.08
2023-03-26T18:27:45.958Z,38.02
2023-03-26T18:30:16.195Z,37.98
2023-03-26T18:32:47.831Z,38.05
2023-03-26T18:35:16.965Z,38.13
2023-03-26T18:37:45.884Z,38.31
2023-03-26T18:40:16.719Z,38.42
2023-03-26T18:42:47.637Z,38.44
2023-03-26T18:45:23.049Z,38.48
2023-03-26T18:47:52.701Z,38.21
2023-03-26T18:50:21.224Z,38.60
2023-03-26T18:52:47.527Z,38.54
2023-03-26T18:55:13.875Z,38.61
2023-03-26T18:57:41.173Z,38.60
2023-03-26T19:00:19.946Z,38.33
2023-03-26T19:02:50.020Z,38.57
2023-03-26T19:05:16.769Z,38.22
2023-03-26T19:07:43.234Z,38.14
2023-03-26T19:10:13.927Z,38.60
2023-03-26T19:12:41.280Z,38.60
2023-03-26T19:15:11.848Z,38.25
2023-03-26T19:17:42.753Z,38.13
2023-03-26T19:20:16.726Z,38.27
2023-03-26T19:22:44.591Z,38.25
2023-03-26T19:25:16.682Z,38.17
2023-03-26T19:27:43.123Z,38.16
2023-03-26T19:30:11.364Z,38.17
2023-03-26T19:32:37.728Z,38.16
2023-03-26T19:35:04.465Z,38.41
2023-03-26T19:37:30.951Z,37.64
2023-03-26T19:40:01.591Z,37.45
2023-03-26T19:42:43.054Z,37.24
2023-03-26T19:45:13.703Z,37.06
2023-03-26T19:50:28.971Z,36.80
2023-03-26T19:53:15.495Z,36.60
2023-03-26T19:55:43.792Z,36.46
2023-03-26T19:58:10.116Z,36.31
2023-03-26T20:00:37.409Z,36.22
2023-03-26T20:03:04.048Z,35.62
2023-03-26T20:05:31.893Z,36.00
2023-03-26T20:07:59.644Z,35.68
2023-03-26T20:10:26.366Z,35.79
2023-03-26T20:12:52.680Z,35.58
2023-03-26T20:15:25.799Z,35.32
2023-03-26T20:17:53.581Z,35.23
2023-03-26T20:20:20.206Z,35.25
2023-03-26T20:22:47.242Z,35.12
2023-03-26T20:27:47.999Z,35.39
2023-03-26T20:30:16.448Z,34.74
2023-03-26T20:32:45.789Z,35.21
2023-03-26T20:35:16.085Z,34.66
2023-03-26T20:37:42.403Z,34.96
2023-03-26T20:40:08.886Z,34.89
2023-03-26T20:42:36.126Z,34.89
2023-03-26T20:45:02.930Z,35.15
2023-03-26T20:47:29.282Z,34.33
2023-03-26T20:49:56.152Z,34.21
2023-03-26T20:52:25.523Z,34.21
2023-03-26T20:54:52.048Z,34.81
2023-03-26T20:57:18.579Z,33.52
2023-03-26T20:59:45.588Z,33.65
2023-03-26T21:02:12.245Z,33.74
2023-03-26T21:04:38.730Z,33.70
2023-03-26T21:07:17.189Z,33.86
2023-03-26T21:09:44.884Z,33.82
2023-03-26T21:12:16.759Z,33.89
2023-03-26T21:14:44.106Z,33.57
2023-03-26T21:17:14.726Z,34.07
2023-03-26T21:19:41.340Z,33.93
2023-03-26T21:22:25.556Z,33.93
2023-03-26T21:25:08.090Z,33.78
2023-03-26T21:27:57.768Z,33.43
2023-03-26T21:30:24.222Z,33.41
2023-03-26T21:32:51.264Z,33.89
2023-03-26T21:35:18.140Z,34.51
2023-03-26T21:37:45.527Z,33.94
2023-03-26T21:40:14.352Z,34.19
2023-03-26T21:42:41.641Z,34.20
2023-03-26T21:45:08.544Z,34.30
2023-03-26T21:47:34.893Z,34.08
2023-03-26T21:50:01.313Z,34.01
2023-03-26T21:52:27.946Z,34.30
2023-03-26T21:54:54.403Z,33.96
2023-03-26T21:57:20.813Z,34.16
2023-03-26T21:59:51.602Z,34.06
2023-03-26T22:02:24.087Z,34.48
2023-03-26T22:04:53.721Z,34.08
2023-03-26T22:07:27.409Z,33.97
2023-03-26T22:09:53.847Z,34.01
2023-03-26T22:12:20.308Z,34.07
2023-03-26T22:14:46.670Z,33.91
2023-03-26T22:17:13.026Z,33.81
2023-03-26T22:19:39.343Z,33.91
2023-03-26T22:22:05.664Z,33.77
2023-03-26T22:24:32.083Z,34.01
2023-03-26T22:26:58.401Z,33.84
2023-03-26T22:29:24.775Z,33.79
2023-03-26T22:31:51.180Z,34.10
2023-03-26T22:34:17.847Z,33.90
2023-03-26T22:36:44.222Z,33.76
2023-03-26T22:39:10.739Z,34.10
2023-03-26T22:41:37.119Z,34.16
2023-03-26T22:44:16.766Z,33.87
2023-03-26T22:46:47.298Z,33.89
2023-03-26T22:49:13.658Z,34.05
2023-03-26T22:51:39.990Z,34.05
2023-03-26T22:54:06.361Z,33.88
2023-03-26T22:56:32.770Z,33.99
2023-03-26T22:58:59.130Z,33.76
2023-03-26T23:01:26.229Z,33.86
2023-03-26T23:03:52.645Z,33.94
2023-03-26T23:06:18.999Z,33.94
2023-03-26T23:08:45.329Z,34.07
2023-03-26T23:11:13.066Z,33.79
2023-03-26T23:13:40.305Z,34.03
2023-03-26T23:16:06.874Z,33.92
2023-03-26T23:18:33.229Z,34.04
2023-03-26T23:20:59.693Z,33.97
2023-03-26T23:23:29.599Z,33.74
2023-03-26T23:25:58.583Z,33.96
2023-03-26T23:28:25.408Z,33.89
2023-03-26T23:30:52.227Z,33.90
2023-03-26T23:33:20.528Z,33.97
2023-03-26T23:35:47.616Z,33.85
2023-03-26T23:38:14.015Z,33.64
2023-03-26T23:40:40.787Z,33.85
2023-03-26T23:43:07.101Z,33.87
2023-03-26T23:45:33.515Z,33.69
2023-03-26T23:48:02.237Z,33.72
2023-03-26T23:50:29.432Z,34.01
2023-03-26T23:52:57.880Z,33.91
2023-03-26T23:55:27.264Z,33.77
2023-03-26T23:57:54.476Z,33.91
